Thursday, April 24, 2014, 2:42 PM EDT

KW99, Petersburg, Grant County Airport

Location: Petersburg, WV, United States Lat: 38.983
Local Time: 2:42 PM EDT (18:42 GMT) Lon: -79.133
Time Zone: US/Eastern Elev: 961 ft

Show me the last for .
Show Decoded

2014-04-24 14:15 METAR KW99 241815Z AUTO 15007KT 120V180 10SM CLR 18/00 A3006 RMK AO2 T01800004 =
2014-04-24 13:55 METAR KW99 241755Z AUTO 00000KT 10SM CLR 18/M01 A3007 RMK AO2 T01781015 10178
                 20049 =
2014-04-24 13:35 METAR KW99 241735Z AUTO 17004KT 10SM CLR 18/00 A3007 RMK AO2 T01751004 =
2014-04-24 13:15 METAR KW99 241715Z AUTO 08003KT 10SM SCT100 17/00 A3009 RMK AO2 T01690004 =
2014-04-24 12:55 METAR KW99 241655Z AUTO 00000KT 10SM SCT100 16/M01 A3009 RMK AO2 T01561015 =
2014-04-24 12:35 METAR KW99 241635Z AUTO 00000KT 10SM SCT100 15/M01 A3011 RMK AO2 T01471014 =
2014-04-24 12:15 METAR KW99 241615Z AUTO 11004KT 10SM BKN100 14/M01 A3012 RMK AO2 T01411011 =
2014-04-24 11:55 METAR KW99 241555Z AUTO 12005KT 10SM BKN110 14/M01 A3014 RMK AO2 T01411006 =
2014-04-24 11:35 METAR KW99 241535Z AUTO 11005KT 10SM BKN110 13/M01 A3015 RMK AO2 T01331012 =
2014-04-24 11:15 METAR KW99 241515Z AUTO 16003KT 10SM SCT120 13/M01 A3016 RMK AO2 T01301015 =
2014-04-24 10:50 METAR KW99 241450Z AUTO 00000KT 10SM OVC120 12/M02 A3016 RMK AO2 T01231019 =
2014-04-24 10:35 METAR KW99 241435Z AUTO 00000KT 10SM BKN120 12/M03 A3017 RMK AO2 T01161027 =
2014-04-24 10:15 METAR KW99 241415Z AUTO 00000KT 10SM SCT120 11/M02 A3017 RMK AO2 T01061016 =
2014-04-24 09:55 METAR KW99 241355Z AUTO 00000KT 10SM SCT120 10/M02 A3017 RMK AO2 T00951021 =
2014-04-24 09:35 METAR KW99 241335Z AUTO 14003KT 10SM SCT120 10/M02 A3017 RMK AO2 T00951025 =
2014-04-24 09:15 METAR KW99 241315Z AUTO 13004KT 10SM BKN120 09/M02 A3017 RMK AO2 T00911019 =
2014-04-24 08:55 METAR KW99 241255Z AUTO 10003KT 10SM BKN120 09/00 A3017 RMK AO2 T00861001 =
2014-04-24 08:35 METAR KW99 241235Z AUTO 00000KT 10SM SCT120 07/02 A3017 RMK AO2 T00700024 =
2014-04-24 08:10 METAR KW99 241210Z AUTO 00000KT 10SM CLR 06/02 A3017 RMK AO2 T00600018 =
2014-04-24 07:50 METAR KW99 241150Z AUTO 00000KT 10SM CLR 04/02 A3016 RMK AO2 T00440020 10082
                 20017 =
2014-04-24 07:35 METAR KW99 241135Z AUTO 00000KT 10SM CLR 04/02 A3016 RMK AO2 T00380018 =
2014-04-24 07:15 METAR KW99 241115Z AUTO 00000KT 10SM CLR 03/01 A3015 RMK AO2 T00260012 =
2014-04-24 06:55 METAR KW99 241055Z AUTO 00000KT 10SM CLR 03/01 A3014 RMK AO2 T00270013 =
2014-04-24 06:35 METAR KW99 241035Z AUTO 00000KT 10SM CLR 02/00 A3013 RMK AO2 T00220001 =
2014-04-24 06:15 METAR KW99 241015Z AUTO 00000KT 10SM CLR 02/00 A3012 RMK AO2 T00200000 =
2014-04-24 05:55 METAR KW99 240955Z AUTO 00000KT 10SM CLR 03/01 A3011 RMK AO2 T00320014 =
2014-04-24 05:35 METAR KW99 240935Z AUTO 00000KT 10SM CLR 04/02 A3010 RMK AO2 T00380020 =
2014-04-24 05:15 METAR KW99 240915Z AUTO 00000KT 10SM CLR 03/02 A3010 RMK AO2 T00340015 =
2014-04-24 04:55 METAR KW99 240855Z AUTO 00000KT 10SM CLR 03/01 A3009 RMK AO2 T00290006 =
2014-04-24 04:30 METAR KW99 240830Z AUTO 00000KT 10SM CLR 05/02 A3009 RMK AO2 T00460017 =
2014-04-24 04:15 METAR KW99 240815Z AUTO 00000KT 10SM CLR 05/02 A3009 RMK AO2 T00460017 =
2014-04-24 03:55 METAR KW99 240755Z AUTO 00000KT 10SM CLR 05/01 A3009 RMK AO2 T00490014 =
2014-04-24 03:35 METAR KW99 240735Z AUTO 00000KT 10SM CLR 06/01 A3009 RMK AO2 T00550014 =
2014-04-24 03:15 METAR KW99 240715Z AUTO 30003KT 10SM CLR 05/02 A3007 RMK AO2 T00530016 =
2014-04-24 02:55 METAR KW99 240655Z AUTO 28004KT 10SM CLR 06/01 A3007 RMK AO2 T00630008 =
2014-04-24 02:35 METAR KW99 240635Z AUTO 34006KT 10SM CLR 08/01 A3007 RMK AO2 T00820010 =
2014-04-24 02:15 METAR KW99 240615Z AUTO 33006KT 10SM CLR 08/01 A3008 RMK AO2 T00810011 =
2014-04-24 01:55 METAR KW99 240555Z AUTO 34005KT 10SM CLR 08/01 A3007 RMK AO2 T00760009 10126
                 20075 401600075 =
2014-04-24 01:35 METAR KW99 240535Z AUTO 34006KT 10SM CLR 08/01 A3008 RMK AO2 T00780008 =
2014-04-24 01:15 METAR KW99 240515Z AUTO 02006KT 10SM CLR 08/01 A3008 RMK AO2 T00810009 =
2014-04-24 00:55 METAR KW99 240455Z AUTO 04004KT 10SM CLR 08/01 A3009 RMK AO2 T00790010 =
2014-04-24 00:35 METAR KW99 240435Z AUTO 02004KT 10SM CLR 08/01 A3008 RMK AO2 T00800011 =
2014-04-24 00:10 METAR KW99 240410Z AUTO 36004KT 10SM CLR 09/02 A3007 RMK AO2 T00910016 =
2014-04-23 23:55 METAR KW99 240355Z AUTO 34005KT 10SM CLR 10/02 A3007 RMK AO2 T00960018 =
2014-04-23 23:35 METAR KW99 240335Z AUTO 33006KT 10SM CLR 10/02 A3006 RMK AO2 T00950022 =
2014-04-23 23:15 METAR KW99 240315Z AUTO 32006KT 10SM CLR 10/02 A3007 RMK AO2 T00990023 =
2014-04-23 22:55 METAR KW99 240255Z AUTO 33006KT 10SM CLR 10/02 A3007 RMK AO2 T01040022 =
2014-04-23 22:35 METAR KW99 240235Z AUTO 34005KT 10SM CLR 11/02 A3006 RMK AO2 T01050022 =
2014-04-23 22:15 METAR KW99 240215Z AUTO 35004KT 10SM CLR 11/02 A3006 RMK AO2 T01100021 =
2014-04-23 21:55 METAR KW99 240155Z AUTO 34006KT 10SM CLR 11/02 A3005 RMK AO2 T01140020 =
2014-04-23 21:35 METAR KW99 240135Z AUTO 36004KT 10SM CLR 12/02 A3004 RMK AO2 T01170019 =
2014-04-23 20:55 METAR KW99 240055Z AUTO 32008G19KT 10SM CLR 12/02 A3002 RMK AO2 T01230018 =
2014-04-23 20:30 METAR KW99 240030Z AUTO 29010G18KT 10SM CLR 13/01 A3001 RMK AO2 T01260013 =
2014-04-23 20:15 METAR KW99 240015Z AUTO 30009KT 10SM CLR 12/02 A3000 RMK AO2 T01240018 =
2014-04-23 19:55 METAR KW99 232355Z AUTO 30008G20KT 10SM CLR 13/02 A2999 RMK AO2 T01270016 10160
                 20127 =
2014-04-23 19:35 METAR KW99 232335Z AUTO 30015G21KT 10SM SCT060 13/02 A2998 RMK AO2 T01290016 =
2014-04-23 19:15 METAR KW99 232315Z AUTO 30010G15KT 10SM BKN060 13/02 A2998 RMK AO2 T01330023 =
2014-04-23 18:50 METAR KW99 232250Z AUTO 32012G17KT 10SM BKN060 13/02 A2998 RMK AO2 T01340023 =
2014-04-23 18:35 METAR KW99 232235Z AUTO 31011G14KT 10SM BKN060 14/03 A2997 RMK AO2 T01380026 =
2014-04-23 18:15 METAR KW99 232215Z AUTO 32010G20KT 10SM SCT060 14/03 A2997 RMK AO2 T01400027 =
2014-04-23 17:55 METAR KW99 232155Z AUTO 31011G16KT 10SM SCT060 14/03 A2997 RMK AO2 T01420031 =
2014-04-23 17:35 METAR KW99 232135Z AUTO 32019G23KT 10SM SCT060 15/03 A2997 RMK AO2 T01460028 =
2014-04-23 17:15 METAR KW99 232115Z AUTO 32012G21KT 10SM CLR 15/03 A2996 RMK AO2 T01460029 =
2014-04-23 16:55 METAR KW99 232055Z AUTO 31016G24KT 10SM CLR 15/04 A2995 RMK AO2 T01520035 =
2014-04-23 16:35 METAR KW99 232035Z AUTO 30013G23KT 10SM SCT060 16/04 A2994 RMK AO2 T01570042 =
2014-04-23 16:15 METAR KW99 232015Z AUTO 29015G21KT 10SM SCT060 15/04 A2994 RMK AO2 T01520035 =
2014-04-23 15:55 METAR KW99 231955Z AUTO 31014G22KT 10SM SCT060 16/04 A2994 RMK AO2 T01580040 =
2014-04-23 15:35 METAR KW99 231935Z AUTO 28014G24KT 10SM SCT060 15/03 A2993 RMK AO2 T01520034 =
2014-04-23 15:15 METAR KW99 231915Z AUTO 30013G20KT 10SM SCT050 15/04 A2994 RMK AO2 T01500038 =

Support USWX by starting your Amazon purchase here.